Pagrindinis puslapis
METAR-TAF:

METAR-TAF

Oro uostai :

Rarotongos tarptautinis oro uostas

Rarotonga, Kuko Salos

platuma: 21-12S, ilguma: 159-49W, Aukštis: 7 m

Dabartinis oras

Ataskaita buvo paskelbta 10 minutes, ne 14:00 UTC
Vėjas 6 kt iš Pietryčių
Temperatūra 20°C
Drėgmė 73%
Slėgis 1011 hPa
Matomumas 10 km arba daugiau
Su prošvaistėmis ne aukštis 2200 ft

METAR: NCRG 231400Z 13006KT 9999 BKN022 20/15 Q1011

Laikas: 04:10 (14:10 UTC)

Prognozė

Ataskaita buvo paskelbta 3 valandos ir 6 minutes, ne 11:04 UTC
Prognozė galioja nuo 23 metu 12 UTC su 24 metu 12 UTC
Vėjas 9 kt iš Pietryčių
Matomumas 10 km arba daugiau
Apsiniaukę ne aukštis 6000 ft

TAF: NCRG 231104Z 2312/2412 14009KT 9999 OVC060

Orai ataskaitas ir orų prognozės (METAR, TAF).

turimą stotys yra geltonos ir raudonos taškus žemėlapyje.

Perkelti pele per norėdami pamatyti stoties vardą.

Tada spustelėkite, norėdami matyti oro stebėjimo ir prognozės.

Norėdami pakeisti žemėlapį: spustelėkite ant žalios mygtukų su juodo kryžiaus žemyn,; žalią mygtuką su brūkšneliu, jei norite nutolinti; arba žalių rodyklių gretimoms žemėlapius.


METAR-TAF: